sensor_id;sensor_type;location;lat;lon;timestamp;P1;durP1;ratioP1;P2;durP2;ratioP2
27670;SDS011;15077;49.704;9.908;2023-07-22T00:01:03;2.33;;;1.20;;
27670;SDS011;15077;49.704;9.908;2023-07-22T00:03:29;2.28;;;1.25;;
27670;SDS011;15077;49.704;9.908;2023-07-22T00:06:02;2.05;;;1.17;;
27670;SDS011;15077;49.704;9.908;2023-07-22T00:08:36;2.00;;;1.02;;
27670;SDS011;15077;49.704;9.908;2023-07-22T00:11:06;1.95;;;1.17;;
27670;SDS011;15077;49.704;9.908;2023-07-22T00:13:33;2.15;;;1.17;;
27670;SDS011;15077;49.704;9.908;2023-07-22T00:16:00;1.63;;;1.15;;
27670;SDS011;15077;49.704;9.908;2023-07-22T00:18:30;1.75;;;1.05;;
27670;SDS011;15077;49.704;9.908;2023-07-22T00:20:57;2.08;;;1.45;;
27670;SDS011;15077;49.704;9.908;2023-07-22T00:23:23;1.35;;;1.00;;
27670;SDS011;15077;49.704;9.908;2023-07-22T00:25:49;1.83;;;1.08;;
27670;SDS011;15077;49.704;9.908;2023-07-22T00:28:16;5.00;;;1.58;;
27670;SDS011;15077;49.704;9.908;2023-07-22T00:30:43;2.63;;;1.25;;
27670;SDS011;15077;49.704;9.908;2023-07-22T00:33:09;1.67;;;1.30;;
27670;SDS011;15077;49.704;9.908;2023-07-22T00:35:35;1.70;;;1.25;;
27670;SDS011;15077;49.704;9.908;2023-07-22T00:38:01;4.03;;;2.30;;
27670;SDS011;15077;49.704;9.908;2023-07-22T00:40:29;2.03;;;1.50;;
27670;SDS011;15077;49.704;9.908;2023-07-22T00:42:57;2.38;;;1.38;;
27670;SDS011;15077;49.704;9.908;2023-07-22T00:45:24;2.20;;;1.30;;
27670;SDS011;15077;49.704;9.908;2023-07-22T00:47:52;1.85;;;1.38;;
27670;SDS011;15077;49.704;9.908;2023-07-22T00:50:18;1.73;;;1.27;;
27670;SDS011;15077;49.704;9.908;2023-07-22T00:52:44;1.65;;;1.23;;
27670;SDS011;15077;49.704;9.908;2023-07-22T00:55:10;3.03;;;1.75;;
27670;SDS011;15077;49.704;9.908;2023-07-22T00:57:36;1.92;;;1.40;;
27670;SDS011;15077;49.704;9.908;2023-07-22T01:00:03;2.65;;;1.35;;
27670;SDS011;15077;49.704;9.908;2023-07-22T01:02:30;1.55;;;1.00;;
27670;SDS011;15077;49.704;9.908;2023-07-22T01:04:57;2.00;;;1.30;;
27670;SDS011;15077;49.704;9.908;2023-07-22T01:07:23;2.72;;;1.40;;
27670;SDS011;15077;49.704;9.908;2023-07-22T01:09:49;1.70;;;1.30;;
27670;SDS011;15077;49.704;9.908;2023-07-22T01:12:23;1.70;;;1.10;;
27670;SDS011;15077;49.704;9.908;2023-07-22T01:14:50;1.50;;;1.05;;
27670;SDS011;15077;49.704;9.908;2023-07-22T01:17:16;1.83;;;1.08;;
27670;SDS011;15077;49.704;9.908;2023-07-22T01:19:41;1.85;;;1.00;;
27670;SDS011;15077;49.704;9.908;2023-07-22T01:22:09;5.80;;;1.30;;
27670;SDS011;15077;49.704;9.908;2023-07-22T01:24:38;2.03;;;1.10;;
27670;SDS011;15077;49.704;9.908;2023-07-22T01:27:05;2.78;;;1.20;;
27670;SDS011;15077;49.704;9.908;2023-07-22T01:29:37;1.83;;;1.23;;
27670;SDS011;15077;49.704;9.908;2023-07-22T01:32:03;2.70;;;1.00;;
27670;SDS011;15077;49.704;9.908;2023-07-22T01:34:30;2.35;;;1.30;;
27670;SDS011;15077;49.704;9.908;2023-07-22T01:36:56;2.63;;;1.52;;
27670;SDS011;15077;49.704;9.908;2023-07-22T01:39:22;1.73;;;1.10;;
27670;SDS011;15077;49.704;9.908;2023-07-22T01:41:48;2.60;;;1.52;;
27670;SDS011;15077;49.704;9.908;2023-07-22T01:44:14;2.47;;;1.48;;
27670;SDS011;15077;49.704;9.908;2023-07-22T01:46:40;2.28;;;1.50;;
27670;SDS011;15077;49.704;9.908;2023-07-22T01:49:07;1.85;;;1.08;;
27670;SDS011;15077;49.704;9.908;2023-07-22T01:51:37;1.60;;;1.40;;
27670;SDS011;15077;49.704;9.908;2023-07-22T01:54:08;2.35;;;1.42;;
27670;SDS011;15077;49.704;9.908;2023-07-22T01:56:35;1.63;;;1.00;;
27670;SDS011;15077;49.704;9.908;2023-07-22T01:59:02;1.25;;;1.05;;
27670;SDS011;15077;49.704;9.908;2023-07-22T02:01:27;1.45;;;0.98;;
27670;SDS011;15077;49.704;9.908;2023-07-22T02:03:54;2.17;;;1.25;;
27670;SDS011;15077;49.704;9.908;2023-07-22T02:06:20;2.17;;;1.23;;
27670;SDS011;15077;49.704;9.908;2023-07-22T02:08:46;2.88;;;1.67;;
27670;SDS011;15077;49.704;9.908;2023-07-22T02:11:12;2.30;;;1.63;;
27670;SDS011;15077;49.704;9.908;2023-07-22T02:13:38;3.10;;;1.60;;
27670;SDS011;15077;49.704;9.908;2023-07-22T02:16:04;2.45;;;1.90;;
27670;SDS011;15077;49.704;9.908;2023-07-22T02:18:30;2.00;;;1.52;;
27670;SDS011;15077;49.704;9.908;2023-07-22T02:20:56;2.25;;;1.40;;
27670;SDS011;15077;49.704;9.908;2023-07-22T02:23:23;2.35;;;1.50;;
27670;SDS011;15077;49.704;9.908;2023-07-22T02:25:50;2.45;;;1.65;;
27670;SDS011;15077;49.704;9.908;2023-07-22T02:28:22;3.38;;;1.65;;
27670;SDS011;15077;49.704;9.908;2023-07-22T02:30:49;2.38;;;1.45;;
27670;SDS011;15077;49.704;9.908;2023-07-22T02:33:19;2.15;;;1.45;;
27670;SDS011;15077;49.704;9.908;2023-07-22T02:35:49;2.38;;;1.23;;
27670;SDS011;15077;49.704;9.908;2023-07-22T02:38:15;2.15;;;1.20;;
27670;SDS011;15077;49.704;9.908;2023-07-22T02:40:41;1.85;;;1.27;;
27670;SDS011;15077;49.704;9.908;2023-07-22T02:43:07;2.13;;;1.25;;
27670;SDS011;15077;49.704;9.908;2023-07-22T02:45:33;1.88;;;1.35;;
27670;SDS011;15077;49.704;9.908;2023-07-22T02:48:00;2.42;;;1.10;;
27670;SDS011;15077;49.704;9.908;2023-07-22T02:50:26;1.67;;;1.10;;
27670;SDS011;15077;49.704;9.908;2023-07-22T02:52:51;2.55;;;1.23;;
27670;SDS011;15077;49.704;9.908;2023-07-22T02:55:17;1.77;;;1.20;;
27670;SDS011;15077;49.704;9.908;2023-07-22T02:57:44;1.67;;;1.30;;
27670;SDS011;15077;49.704;9.908;2023-07-22T03:00:12;2.40;;;1.50;;
27670;SDS011;15077;49.704;9.908;2023-07-22T03:02:56;1.70;;;1.00;;
27670;SDS011;15077;49.704;9.908;2023-07-22T03:05:26;1.50;;;1.00;;
27670;SDS011;15077;49.704;9.908;2023-07-22T03:07:55;1.67;;;0.70;;
27670;SDS011;15077;49.704;9.908;2023-07-22T03:10:22;1.70;;;1.38;;
27670;SDS011;15077;49.704;9.908;2023-07-22T03:12:50;4.03;;;1.50;;
27670;SDS011;15077;49.704;9.908;2023-07-22T03:15:21;1.58;;;1.02;;
27670;SDS011;15077;49.704;9.908;2023-07-22T03:17:53;2.20;;;1.10;;
27670;SDS011;15077;49.704;9.908;2023-07-22T03:20:24;2.30;;;1.05;;
27670;SDS011;15077;49.704;9.908;2023-07-22T03:22:51;1.27;;;0.95;;
27670;SDS011;15077;49.704;9.908;2023-07-22T03:25:17;2.83;;;1.70;;
27670;SDS011;15077;49.704;9.908;2023-07-22T03:27:45;1.60;;;1.10;;
27670;SDS011;15077;49.704;9.908;2023-07-22T03:30:15;1.52;;;1.08;;
27670;SDS011;15077;49.704;9.908;2023-07-22T03:32:46;1.60;;;1.10;;
27670;SDS011;15077;49.704;9.908;2023-07-22T03:35:13;1.98;;;1.02;;
27670;SDS011;15077;49.704;9.908;2023-07-22T03:37:40;1.65;;;1.20;;
27670;SDS011;15077;49.704;9.908;2023-07-22T03:40:06;2.33;;;1.40;;
27670;SDS011;15077;49.704;9.908;2023-07-22T03:42:38;1.40;;;1.10;;
27670;SDS011;15077;49.704;9.908;2023-07-22T03:45:04;1.45;;;1.20;;
27670;SDS011;15077;49.704;9.908;2023-07-22T03:47:31;2.20;;;1.48;;
27670;SDS011;15077;49.704;9.908;2023-07-22T03:49:57;1.60;;;1.05;;
27670;SDS011;15077;49.704;9.908;2023-07-22T03:52:23;2.33;;;1.42;;
27670;SDS011;15077;49.704;9.908;2023-07-22T03:54:49;1.73;;;1.45;;
27670;SDS011;15077;49.704;9.908;2023-07-22T03:57:15;2.08;;;1.40;;
27670;SDS011;15077;49.704;9.908;2023-07-22T03:59:40;2.38;;;1.27;;
27670;SDS011;15077;49.704;9.908;2023-07-22T04:02:06;2.80;;;1.40;;
27670;SDS011;15077;49.704;9.908;2023-07-22T04:04:33;1.90;;;1.20;;
27670;SDS011;15077;49.704;9.908;2023-07-22T04:06:58;1.55;;;1.30;;
27670;SDS011;15077;49.704;9.908;2023-07-22T04:09:26;1.80;;;1.42;;
27670;SDS011;15077;49.704;9.908;2023-07-22T04:11:55;1.67;;;1.10;;
27670;SDS011;15077;49.704;9.908;2023-07-22T04:14:20;2.45;;;1.27;;
27670;SDS011;15077;49.704;9.908;2023-07-22T04:16:46;2.30;;;1.35;;
27670;SDS011;15077;49.704;9.908;2023-07-22T04:19:12;2.72;;;1.02;;
27670;SDS011;15077;49.704;9.908;2023-07-22T04:21:38;1.70;;;1.42;;
27670;SDS011;15077;49.704;9.908;2023-07-22T04:24:04;1.58;;;1.40;;
27670;SDS011;15077;49.704;9.908;2023-07-22T04:26:30;2.35;;;1.50;;
27670;SDS011;15077;49.704;9.908;2023-07-22T04:28:56;3.00;;;1.35;;
27670;SDS011;15077;49.704;9.908;2023-07-22T04:31:23;1.45;;;1.00;;
27670;SDS011;15077;49.704;9.908;2023-07-22T04:33:49;1.45;;;0.95;;
27670;SDS011;15077;49.704;9.908;2023-07-22T04:36:15;2.00;;;1.63;;
27670;SDS011;15077;49.704;9.908;2023-07-22T04:38:41;3.13;;;1.00;;
27670;SDS011;15077;49.704;9.908;2023-07-22T04:41:07;2.15;;;1.52;;
27670;SDS011;15077;49.704;9.908;2023-07-22T04:43:33;1.60;;;1.10;;
27670;SDS011;15077;49.704;9.908;2023-07-22T04:45:58;1.98;;;1.60;;
27670;SDS011;15077;49.704;9.908;2023-07-22T04:48:24;2.53;;;1.85;;
27670;SDS011;15077;49.704;9.908;2023-07-22T04:50:51;1.92;;;1.27;;
27670;SDS011;15077;49.704;9.908;2023-07-22T04:53:17;2.20;;;1.60;;
27670;SDS011;15077;49.704;9.908;2023-07-22T04:55:43;3.50;;;1.20;;
27670;SDS011;15077;49.704;9.908;2023-07-22T04:58:09;1.10;;;0.73;;
27670;SDS011;15077;49.704;9.908;2023-07-22T05:00:35;3.58;;;1.40;;
27670;SDS011;15077;49.704;9.908;2023-07-22T05:03:04;1.50;;;1.05;;
27670;SDS011;15077;49.704;9.908;2023-07-22T05:05:31;2.33;;;1.50;;
27670;SDS011;15077;49.704;9.908;2023-07-22T05:07:57;2.05;;;1.55;;
27670;SDS011;15077;49.704;9.908;2023-07-22T05:10:23;2.65;;;1.48;;
27670;SDS011;15077;49.704;9.908;2023-07-22T05:12:49;2.92;;;1.55;;
27670;SDS011;15077;49.704;9.908;2023-07-22T05:15:14;1.60;;;1.08;;
27670;SDS011;15077;49.704;9.908;2023-07-22T05:17:40;2.72;;;1.23;;
27670;SDS011;15077;49.704;9.908;2023-07-22T05:20:06;1.50;;;1.30;;
27670;SDS011;15077;49.704;9.908;2023-07-22T05:22:37;3.03;;;1.48;;
27670;SDS011;15077;49.704;9.908;2023-07-22T05:25:04;2.63;;;1.60;;
27670;SDS011;15077;49.704;9.908;2023-07-22T05:27:31;2.17;;;1.58;;
27670;SDS011;15077;49.704;9.908;2023-07-22T05:29:57;2.72;;;1.42;;
27670;SDS011;15077;49.704;9.908;2023-07-22T05:32:23;2.92;;;1.88;;
27670;SDS011;15077;49.704;9.908;2023-07-22T05:34:49;2.67;;;1.60;;
27670;SDS011;15077;49.704;9.908;2023-07-22T05:37:14;2.33;;;1.65;;
27670;SDS011;15077;49.704;9.908;2023-07-22T05:39:43;2.80;;;2.05;;
27670;SDS011;15077;49.704;9.908;2023-07-22T05:42:09;3.35;;;1.83;;
27670;SDS011;15077;49.704;9.908;2023-07-22T05:44:35;2.97;;;1.73;;
27670;SDS011;15077;49.704;9.908;2023-07-22T05:47:00;3.22;;;1.92;;
27670;SDS011;15077;49.704;9.908;2023-07-22T05:49:26;4.28;;;1.98;;
27670;SDS011;15077;49.704;9.908;2023-07-22T05:51:52;2.05;;;1.55;;
27670;SDS011;15077;49.704;9.908;2023-07-22T05:54:19;2.67;;;1.55;;
27670;SDS011;15077;49.704;9.908;2023-07-22T05:56:46;4.70;;;2.97;;
27670;SDS011;15077;49.704;9.908;2023-07-22T05:59:11;6.95;;;4.03;;
27670;SDS011;15077;49.704;9.908;2023-07-22T06:01:37;7.22;;;3.60;;
27670;SDS011;15077;49.704;9.908;2023-07-22T06:04:06;8.05;;;3.85;;
27670;SDS011;15077;49.704;9.908;2023-07-22T06:06:32;5.68;;;2.78;;
27670;SDS011;15077;49.704;9.908;2023-07-22T06:09:01;4.15;;;2.10;;
27670;SDS011;15077;49.704;9.908;2023-07-22T06:11:27;2.78;;;1.52;;
27670;SDS011;15077;49.704;9.908;2023-07-22T06:13:53;3.17;;;1.90;;
27670;SDS011;15077;49.704;9.908;2023-07-22T06:16:19;2.47;;;1.50;;
27670;SDS011;15077;49.704;9.908;2023-07-22T06:18:45;3.65;;;1.77;;
27670;SDS011;15077;49.704;9.908;2023-07-22T06:21:11;3.20;;;1.83;;
27670;SDS011;15077;49.704;9.908;2023-07-22T06:23:37;5.40;;;2.85;;
27670;SDS011;15077;49.704;9.908;2023-07-22T06:26:02;3.47;;;2.53;;
27670;SDS011;15077;49.704;9.908;2023-07-22T06:28:28;3.00;;;2.40;;
27670;SDS011;15077;49.704;9.908;2023-07-22T06:30:54;4.95;;;2.85;;
27670;SDS011;15077;49.704;9.908;2023-07-22T06:33:20;3.45;;;2.50;;
27670;SDS011;15077;49.704;9.908;2023-07-22T06:35:45;3.00;;;2.17;;
27670;SDS011;15077;49.704;9.908;2023-07-22T06:38:11;3.10;;;2.53;;
27670;SDS011;15077;49.704;9.908;2023-07-22T06:40:37;2.70;;;2.10;;
27670;SDS011;15077;49.704;9.908;2023-07-22T06:43:05;3.58;;;2.33;;
27670;SDS011;15077;49.704;9.908;2023-07-22T06:45:31;2.90;;;2.10;;
27670;SDS011;15077;49.704;9.908;2023-07-22T06:47:58;3.75;;;2.65;;
27670;SDS011;15077;49.704;9.908;2023-07-22T06:50:24;4.70;;;2.95;;
27670;SDS011;15077;49.704;9.908;2023-07-22T06:52:50;4.15;;;2.85;;
27670;SDS011;15077;49.704;9.908;2023-07-22T06:55:16;3.67;;;2.40;;
27670;SDS011;15077;49.704;9.908;2023-07-22T06:57:42;3.38;;;1.90;;
27670;SDS011;15077;49.704;9.908;2023-07-22T07:00:08;2.70;;;1.70;;
27670;SDS011;15077;49.704;9.908;2023-07-22T07:02:37;3.75;;;2.15;;
27670;SDS011;15077;49.704;9.908;2023-07-22T07:05:03;3.45;;;2.28;;
27670;SDS011;15077;49.704;9.908;2023-07-22T07:07:29;3.40;;;2.20;;
27670;SDS011;15077;49.704;9.908;2023-07-22T07:09:55;3.70;;;2.42;;
27670;SDS011;15077;49.704;9.908;2023-07-22T07:12:20;2.85;;;2.10;;
27670;SDS011;15077;49.704;9.908;2023-07-22T07:14:49;2.78;;;2.03;;
27670;SDS011;15077;49.704;9.908;2023-07-22T07:17:17;3.08;;;2.17;;
27670;SDS011;15077;49.704;9.908;2023-07-22T07:19:43;3.10;;;2.70;;
27670;SDS011;15077;49.704;9.908;2023-07-22T07:22:08;3.10;;;2.13;;
27670;SDS011;15077;49.704;9.908;2023-07-22T07:24:34;2.92;;;1.73;;
27670;SDS011;15077;49.704;9.908;2023-07-22T07:27:00;3.47;;;2.22;;
27670;SDS011;15077;49.704;9.908;2023-07-22T07:29:25;2.42;;;2.03;;
27670;SDS011;15077;49.704;9.908;2023-07-22T07:31:51;2.83;;;2.00;;
27670;SDS011;15077;49.704;9.908;2023-07-22T07:34:17;3.60;;;2.78;;
27670;SDS011;15077;49.704;9.908;2023-07-22T07:36:43;2.85;;;1.80;;
27670;SDS011;15077;49.704;9.908;2023-07-22T07:39:08;3.33;;;2.15;;
27670;SDS011;15077;49.704;9.908;2023-07-22T07:41:34;2.30;;;1.58;;
27670;SDS011;15077;49.704;9.908;2023-07-22T07:44:00;2.42;;;1.55;;
27670;SDS011;15077;49.704;9.908;2023-07-22T07:46:27;2.00;;;1.40;;
27670;SDS011;15077;49.704;9.908;2023-07-22T07:48:54;3.10;;;1.70;;
27670;SDS011;15077;49.704;9.908;2023-07-22T07:51:22;2.30;;;1.77;;
27670;SDS011;15077;49.704;9.908;2023-07-22T07:53:51;3.65;;;1.85;;
27670;SDS011;15077;49.704;9.908;2023-07-22T07:56:19;4.88;;;2.30;;
27670;SDS011;15077;49.704;9.908;2023-07-22T07:58:45;6.25;;;2.80;;
27670;SDS011;15077;49.704;9.908;2023-07-22T08:01:13;3.65;;;2.00;;
27670;SDS011;15077;49.704;9.908;2023-07-22T08:03:40;2.67;;;1.67;;
27670;SDS011;15077;49.704;9.908;2023-07-22T08:06:07;2.42;;;1.60;;
27670;SDS011;15077;49.704;9.908;2023-07-22T08:08:37;2.88;;;1.80;;
27670;SDS011;15077;49.704;9.908;2023-07-22T08:11:04;2.63;;;1.88;;
27670;SDS011;15077;49.704;9.908;2023-07-22T08:13:35;3.30;;;2.50;;
27670;SDS011;15077;49.704;9.908;2023-07-22T08:16:03;3.85;;;2.17;;
27670;SDS011;15077;49.704;9.908;2023-07-22T08:18:31;3.28;;;2.03;;
27670;SDS011;15077;49.704;9.908;2023-07-22T08:20:58;2.40;;;1.63;;
27670;SDS011;15077;49.704;9.908;2023-07-22T08:23:24;2.92;;;2.17;;
27670;SDS011;15077;49.704;9.908;2023-07-22T08:25:50;3.00;;;2.33;;
27670;SDS011;15077;49.704;9.908;2023-07-22T08:28:15;3.40;;;2.22;;
27670;SDS011;15077;49.704;9.908;2023-07-22T08:30:42;5.18;;;2.92;;
27670;SDS011;15077;49.704;9.908;2023-07-22T08:33:09;2.78;;;2.20;;
27670;SDS011;15077;49.704;9.908;2023-07-22T08:35:39;2.83;;;1.98;;
27670;SDS011;15077;49.704;9.908;2023-07-22T08:38:06;4.35;;;2.60;;
27670;SDS011;15077;49.704;9.908;2023-07-22T08:40:33;2.63;;;2.05;;
27670;SDS011;15077;49.704;9.908;2023-07-22T08:43:05;2.65;;;2.10;;
27670;SDS011;15077;49.704;9.908;2023-07-22T08:45:35;2.65;;;2.00;;
27670;SDS011;15077;49.704;9.908;2023-07-22T08:48:04;4.47;;;2.20;;
27670;SDS011;15077;49.704;9.908;2023-07-22T08:53:23;4.80;;;2.90;;
27670;SDS011;15077;49.704;9.908;2023-07-22T08:55:51;2.33;;;1.75;;
27670;SDS011;15077;49.704;9.908;2023-07-22T08:58:18;3.38;;;2.30;;
27670;SDS011;15077;49.704;9.908;2023-07-22T09:00:45;4.32;;;2.35;;
27670;SDS011;15077;49.704;9.908;2023-07-22T09:03:13;2.35;;;1.80;;
27670;SDS011;15077;49.704;9.908;2023-07-22T09:05:39;3.38;;;1.98;;
27670;SDS011;15077;49.704;9.908;2023-07-22T09:08:07;3.35;;;2.25;;
27670;SDS011;15077;49.704;9.908;2023-07-22T09:10:34;2.90;;;2.10;;
27670;SDS011;15077;49.704;9.908;2023-07-22T09:13:01;3.67;;;2.15;;
27670;SDS011;15077;49.704;9.908;2023-07-22T09:15:28;2.63;;;2.22;;
27670;SDS011;15077;49.704;9.908;2023-07-22T09:17:54;3.53;;;2.22;;
27670;SDS011;15077;49.704;9.908;2023-07-22T09:20:20;2.85;;;2.28;;
27670;SDS011;15077;49.704;9.908;2023-07-22T09:22:48;2.95;;;2.00;;
27670;SDS011;15077;49.704;9.908;2023-07-22T09:28:00;4.30;;;2.20;;
27670;SDS011;15077;49.704;9.908;2023-07-22T09:33:07;1.95;;;1.65;;
27670;SDS011;15077;49.704;9.908;2023-07-22T09:35:48;3.38;;;1.92;;
27670;SDS011;15077;49.704;9.908;2023-07-22T09:38:15;4.70;;;1.92;;
27670;SDS011;15077;49.704;9.908;2023-07-22T09:40:51;3.00;;;1.85;;
27670;SDS011;15077;49.704;9.908;2023-07-22T09:43:17;2.92;;;2.30;;
27670;SDS011;15077;49.704;9.908;2023-07-22T09:45:46;3.58;;;2.33;;
27670;SDS011;15077;49.704;9.908;2023-07-22T09:48:13;2.30;;;1.92;;
27670;SDS011;15077;49.704;9.908;2023-07-22T09:50:39;1.92;;;1.63;;
27670;SDS011;15077;49.704;9.908;2023-07-22T09:53:05;2.60;;;2.10;;
27670;SDS011;15077;49.704;9.908;2023-07-22T09:55:32;2.38;;;1.70;;
27670;SDS011;15077;49.704;9.908;2023-07-22T09:57:59;3.47;;;1.80;;
27670;SDS011;15077;49.704;9.908;2023-07-22T10:00:28;3.40;;;1.80;;
27670;SDS011;15077;49.704;9.908;2023-07-22T10:03:00;3.43;;;2.17;;
27670;SDS011;15077;49.704;9.908;2023-07-22T10:05:33;5.22;;;1.77;;
27670;SDS011;15077;49.704;9.908;2023-07-22T10:08:00;3.63;;;2.50;;
27670;SDS011;15077;49.704;9.908;2023-07-22T10:10:34;2.92;;;1.70;;
27670;SDS011;15077;49.704;9.908;2023-07-22T10:13:03;1.90;;;1.58;;
27670;SDS011;15077;49.704;9.908;2023-07-22T10:15:31;3.08;;;2.00;;
27670;SDS011;15077;49.704;9.908;2023-07-22T10:17:59;1.75;;;1.50;;
27670;SDS011;15077;49.704;9.908;2023-07-22T10:20:27;2.88;;;2.00;;
27670;SDS011;15077;49.704;9.908;2023-07-22T10:22:55;1.90;;;1.02;;
27670;SDS011;15077;49.704;9.908;2023-07-22T10:25:25;3.55;;;2.00;;
27670;SDS011;15077;49.704;9.908;2023-07-22T10:27:51;3.45;;;1.63;;
27670;SDS011;15077;49.704;9.908;2023-07-22T10:30:19;1.88;;;1.58;;
27670;SDS011;15077;49.704;9.908;2023-07-22T10:32:49;4.68;;;2.08;;
27670;SDS011;15077;49.704;9.908;2023-07-22T10:37:56;6.13;;;2.15;;
27670;SDS011;15077;49.704;9.908;2023-07-22T10:43:11;3.97;;;2.17;;
27670;SDS011;15077;49.704;9.908;2023-07-22T10:45:41;1.95;;;1.70;;
27670;SDS011;15077;49.704;9.908;2023-07-22T10:48:14;2.90;;;2.17;;
27670;SDS011;15077;49.704;9.908;2023-07-22T10:58:54;2.35;;;1.60;;
27670;SDS011;15077;49.704;9.908;2023-07-22T11:01:23;3.67;;;1.88;;
27670;SDS011;15077;49.704;9.908;2023-07-22T11:04:11;2.55;;;1.80;;
27670;SDS011;15077;49.704;9.908;2023-07-22T11:11:53;1.90;;;1.65;;
27670;SDS011;15077;49.704;9.908;2023-07-22T11:14:22;4.15;;;1.70;;
27670;SDS011;15077;49.704;9.908;2023-07-22T11:16:52;3.05;;;2.22;;
27670;SDS011;15077;49.704;9.908;2023-07-22T11:19:19;3.03;;;1.67;;
27670;SDS011;15077;49.704;9.908;2023-07-22T11:21:49;3.47;;;1.70;;
27670;SDS011;15077;49.704;9.908;2023-07-22T11:24:17;2.35;;;1.65;;
27670;SDS011;15077;49.704;9.908;2023-07-22T11:26:44;2.22;;;1.50;;
27670;SDS011;15077;49.704;9.908;2023-07-22T11:29:12;3.28;;;1.75;;
27670;SDS011;15077;49.704;9.908;2023-07-22T11:31:40;2.67;;;1.80;;
27670;SDS011;15077;49.704;9.908;2023-07-22T11:34:09;2.50;;;1.83;;
27670;SDS011;15077;49.704;9.908;2023-07-22T11:36:36;2.55;;;1.40;;
27670;SDS011;15077;49.704;9.908;2023-07-22T11:39:03;2.08;;;1.45;;
27670;SDS011;15077;49.704;9.908;2023-07-22T11:41:34;3.80;;;1.52;;
27670;SDS011;15077;49.704;9.908;2023-07-22T11:44:03;2.72;;;1.60;;
27670;SDS011;15077;49.704;9.908;2023-07-22T11:46:34;2.97;;;2.08;;
27670;SDS011;15077;49.704;9.908;2023-07-22T11:49:01;2.67;;;1.50;;
27670;SDS011;15077;49.704;9.908;2023-07-22T11:51:28;3.10;;;1.50;;
27670;SDS011;15077;49.704;9.908;2023-07-22T11:53:54;2.78;;;1.88;;
27670;SDS011;15077;49.704;9.908;2023-07-22T11:56:21;2.30;;;1.83;;
27670;SDS011;15077;49.704;9.908;2023-07-22T11:58:51;7.03;;;2.22;;
27670;SDS011;15077;49.704;9.908;2023-07-22T12:01:18;2.88;;;1.60;;
27670;SDS011;15077;49.704;9.908;2023-07-22T12:03:45;2.28;;;1.58;;
27670;SDS011;15077;49.704;9.908;2023-07-22T12:06:11;3.83;;;1.60;;
27670;SDS011;15077;49.704;9.908;2023-07-22T12:08:44;2.50;;;1.40;;
27670;SDS011;15077;49.704;9.908;2023-07-22T12:11:15;3.47;;;2.65;;
27670;SDS011;15077;49.704;9.908;2023-07-22T12:16:38;2.15;;;1.27;;
27670;SDS011;15077;49.704;9.908;2023-07-22T12:19:07;2.20;;;1.80;;
27670;SDS011;15077;49.704;9.908;2023-07-22T12:21:34;1.88;;;1.50;;
27670;SDS011;15077;49.704;9.908;2023-07-22T12:24:00;2.05;;;1.42;;
27670;SDS011;15077;49.704;9.908;2023-07-22T12:26:27;1.95;;;1.52;;
27670;SDS011;15077;49.704;9.908;2023-07-22T12:28:53;3.33;;;1.90;;
27670;SDS011;15077;49.704;9.908;2023-07-22T12:31:19;3.20;;;1.80;;
27670;SDS011;15077;49.704;9.908;2023-07-22T12:33:44;5.45;;;1.88;;
27670;SDS011;15077;49.704;9.908;2023-07-22T12:36:10;2.40;;;1.83;;
27670;SDS011;15077;49.704;9.908;2023-07-22T12:38:36;2.35;;;1.50;;
27670;SDS011;15077;49.704;9.908;2023-07-22T12:41:02;2.30;;;1.40;;
27670;SDS011;15077;49.704;9.908;2023-07-22T12:43:28;3.13;;;1.65;;
27670;SDS011;15077;49.704;9.908;2023-07-22T12:45:55;1.98;;;1.45;;
27670;SDS011;15077;49.704;9.908;2023-07-22T12:48:21;2.10;;;1.20;;
27670;SDS011;15077;49.704;9.908;2023-07-22T12:50:49;3.00;;;1.63;;
27670;SDS011;15077;49.704;9.908;2023-07-22T12:53:15;2.50;;;1.60;;
27670;SDS011;15077;49.704;9.908;2023-07-22T12:55:41;2.05;;;1.55;;
27670;SDS011;15077;49.704;9.908;2023-07-22T12:58:07;2.65;;;1.58;;
27670;SDS011;15077;49.704;9.908;2023-07-22T13:00:33;3.03;;;1.40;;
27670;SDS011;15077;49.704;9.908;2023-07-22T13:02:58;2.83;;;1.52;;
27670;SDS011;15077;49.704;9.908;2023-07-22T13:05:24;3.63;;;1.60;;
27670;SDS011;15077;49.704;9.908;2023-07-22T13:07:50;2.55;;;1.20;;
27670;SDS011;15077;49.704;9.908;2023-07-22T13:10:16;2.50;;;1.15;;
27670;SDS011;15077;49.704;9.908;2023-07-22T13:12:44;2.30;;;1.30;;
27670;SDS011;15077;49.704;9.908;2023-07-22T13:15:10;1.85;;;1.50;;
27670;SDS011;15077;49.704;9.908;2023-07-22T13:17:36;2.38;;;1.58;;
27670;SDS011;15077;49.704;9.908;2023-07-22T13:20:02;1.90;;;1.33;;
27670;SDS011;15077;49.704;9.908;2023-07-22T13:22:33;2.55;;;1.40;;
27670;SDS011;15077;49.704;9.908;2023-07-22T13:25:03;2.47;;;1.38;;
27670;SDS011;15077;49.704;9.908;2023-07-22T13:27:30;2.47;;;1.45;;
27670;SDS011;15077;49.704;9.908;2023-07-22T13:29:55;3.28;;;1.48;;
27670;SDS011;15077;49.704;9.908;2023-07-22T13:32:22;2.60;;;1.20;;
27670;SDS011;15077;49.704;9.908;2023-07-22T13:34:48;1.85;;;1.00;;
27670;SDS011;15077;49.704;9.908;2023-07-22T13:37:14;1.50;;;0.93;;
27670;SDS011;15077;49.704;9.908;2023-07-22T13:39:40;2.10;;;1.17;;
27670;SDS011;15077;49.704;9.908;2023-07-22T13:42:05;2.75;;;1.40;;
27670;SDS011;15077;49.704;9.908;2023-07-22T13:44:31;2.45;;;1.45;;
27670;SDS011;15077;49.704;9.908;2023-07-22T13:46:57;2.25;;;1.60;;
27670;SDS011;15077;49.704;9.908;2023-07-22T13:49:22;1.83;;;1.10;;
27670;SDS011;15077;49.704;9.908;2023-07-22T13:51:48;1.60;;;1.20;;
27670;SDS011;15077;49.704;9.908;2023-07-22T13:54:14;1.98;;;1.10;;
27670;SDS011;15077;49.704;9.908;2023-07-22T13:56:41;2.17;;;1.20;;
27670;SDS011;15077;49.704;9.908;2023-07-22T13:59:08;2.13;;;1.50;;
27670;SDS011;15077;49.704;9.908;2023-07-22T14:01:34;2.10;;;1.20;;
27670;SDS011;15077;49.704;9.908;2023-07-22T14:04:00;1.80;;;1.17;;
27670;SDS011;15077;49.704;9.908;2023-07-22T14:06:26;1.58;;;1.20;;
27670;SDS011;15077;49.704;9.908;2023-07-22T14:08:51;1.80;;;1.10;;
27670;SDS011;15077;49.704;9.908;2023-07-22T14:11:18;2.53;;;1.08;;
27670;SDS011;15077;49.704;9.908;2023-07-22T14:13:44;2.13;;;1.27;;
27670;SDS011;15077;49.704;9.908;2023-07-22T14:16:10;3.13;;;1.70;;
27670;SDS011;15077;49.704;9.908;2023-07-22T14:18:36;4.03;;;2.42;;
27670;SDS011;15077;49.704;9.908;2023-07-22T14:21:02;2.80;;;1.50;;
27670;SDS011;15077;49.704;9.908;2023-07-22T14:23:28;2.05;;;1.25;;
27670;SDS011;15077;49.704;9.908;2023-07-22T14:25:53;2.53;;;1.38;;
27670;SDS011;15077;49.704;9.908;2023-07-22T14:28:19;2.63;;;1.63;;
27670;SDS011;15077;49.704;9.908;2023-07-22T14:30:45;3.38;;;1.50;;
27670;SDS011;15077;49.704;9.908;2023-07-22T14:33:11;3.08;;;1.73;;
27670;SDS011;15077;49.704;9.908;2023-07-22T14:35:37;2.10;;;1.30;;
27670;SDS011;15077;49.704;9.908;2023-07-22T14:38:02;2.47;;;1.73;;
27670;SDS011;15077;49.704;9.908;2023-07-22T14:40:28;1.65;;;1.00;;
27670;SDS011;15077;49.704;9.908;2023-07-22T14:42:54;2.60;;;1.40;;
27670;SDS011;15077;49.704;9.908;2023-07-22T14:45:20;2.08;;;1.33;;
27670;SDS011;15077;49.704;9.908;2023-07-22T14:47:46;1.73;;;1.20;;
27670;SDS011;15077;49.704;9.908;2023-07-22T14:50:13;1.75;;;1.15;;
27670;SDS011;15077;49.704;9.908;2023-07-22T14:52:39;2.67;;;1.88;;
27670;SDS011;15077;49.704;9.908;2023-07-22T14:55:05;1.90;;;1.50;;
27670;SDS011;15077;49.704;9.908;2023-07-22T14:57:31;3.13;;;1.90;;
27670;SDS011;15077;49.704;9.908;2023-07-22T14:59:57;2.75;;;1.75;;
27670;SDS011;15077;49.704;9.908;2023-07-22T15:02:23;1.92;;;1.58;;
27670;SDS011;15077;49.704;9.908;2023-07-22T15:04:48;2.65;;;1.52;;
27670;SDS011;15077;49.704;9.908;2023-07-22T15:07:14;2.53;;;1.13;;
27670;SDS011;15077;49.704;9.908;2023-07-22T15:09:40;2.60;;;1.70;;
27670;SDS011;15077;49.704;9.908;2023-07-22T15:12:06;2.08;;;1.50;;
27670;SDS011;15077;49.704;9.908;2023-07-22T15:14:32;1.55;;;1.20;;
27670;SDS011;15077;49.704;9.908;2023-07-22T15:16:59;2.95;;;1.55;;